KHYS/HYS METAR and TAF weather

Enter ICAO airport designator
Station Type Date Time Source
KHYS METAR 2023/02/05 13:56 UTC NOAA

KHYS 051356Z AUTO 27003KT 10SM CLR M04/M06 A3013 RMK AO2 SLP223 T10441056 FZRANO $


Station Type Date Time Source
KHYS Decoded METAR 2023/02/05 13:56 UTC NOAA

Hays, Hays Regional Airport, KS, United States (KHYS) 38-51N 099-16W
Feb 05, 2023 - 08:56 AM EST / 2023.02.05 1356 UTC
Wind: from the W (270 degrees) at 3 MPH (3 KT):0
Visibility: 10 mile(s):0
Sky conditions: clear
Temperature: 24.1 F (-4.4 C)
Dew Point: 21.9 F (-5.6 C)
Relative Humidity: 91%
Pressure (altimeter): 30.13 in. Hg (1020 hPa)
ob: KHYS 051356Z AUTO 27003KT 10SM CLR M04/M06 A3013 RMK AO2 SLP223 T10441056 FZRANO
cycle: 14

Station Type Date Time Source
KHYS TAF 2023/02/05 12:36 UTC NOAA

TAF KHYS 051135Z 0512/0612 29006KT P6SM SKC
FM052000 12007KT P6SM SCT250
FM061100 17010KT P6SM SCT150

Example: see airport list